createdAt,value
2018-08-17T00:01:55.474Z,100193.58
2018-08-17T00:04:26.296Z,100193.25
2018-08-17T00:06:57.096Z,100190.83
2018-08-17T00:09:27.823Z,100184.23
2018-08-17T00:11:58.617Z,100183.77
2018-08-17T00:14:29.467Z,100188.06
2018-08-17T00:17:00.204Z,100185.30
2018-08-17T00:19:30.953Z,100183.10
2018-08-17T00:22:02.053Z,100182.50
2018-08-17T00:24:32.834Z,100173.75
2018-08-17T00:27:03.533Z,100176.77
2018-08-17T00:29:34.238Z,100172.02
2018-08-17T00:32:04.906Z,100165.95
2018-08-17T00:34:35.664Z,100164.24
2018-08-17T00:37:06.386Z,100159.98
2018-08-17T00:39:37.101Z,100165.81
2018-08-17T00:42:07.806Z,100164.73
2018-08-17T00:44:38.589Z,100166.69
2018-08-17T00:47:09.335Z,100163.48
2018-08-17T00:49:40.038Z,100158.41
2018-08-17T00:52:11.265Z,100167.30
2018-08-17T00:54:41.953Z,100165.97
2018-08-17T00:57:12.732Z,100172.80
2018-08-17T00:59:43.435Z,100172.80
2018-08-17T01:02:14.181Z,100173.85
2018-08-17T01:04:44.889Z,100178.39
2018-08-17T01:07:15.591Z,100181.92
2018-08-17T01:09:46.298Z,100182.41
2018-08-17T01:12:17.043Z,100185.55
2018-08-17T01:14:47.804Z,100184.53
2018-08-17T01:17:18.593Z,100185.45
2018-08-17T01:19:49.395Z,100190.08
2018-08-17T01:22:20.137Z,100185.22
2018-08-17T01:24:50.966Z,100187.98
2018-08-17T01:27:21.704Z,100184.98
2018-08-17T01:29:52.423Z,100189.37
2018-08-17T01:32:23.203Z,100199.63
2018-08-17T01:34:53.985Z,100204.60
2018-08-17T01:37:24.771Z,100200.97
2018-08-17T01:39:55.572Z,100209.70
2018-08-17T01:42:26.282Z,100216.00
2018-08-17T01:44:56.976Z,100217.82
2018-08-17T01:47:27.774Z,100225.73
2018-08-17T01:49:58.464Z,100230.07
2018-08-17T01:52:29.251Z,100238.19
2018-08-17T01:54:59.978Z,100244.59
2018-08-17T01:57:30.744Z,100246.55
2018-08-17T02:00:01.426Z,100241.83
2018-08-17T02:02:32.288Z,100257.53
2018-08-17T02:05:03.005Z,100256.20
2018-08-17T02:07:33.746Z,100265.41
2018-08-17T02:10:05.634Z,100265.61
2018-08-17T02:12:36.460Z,100273.96
2018-08-17T02:15:07.284Z,100271.56
2018-08-17T02:17:38.020Z,100268.56
2018-08-17T02:20:08.774Z,100271.00
2018-08-17T02:22:39.525Z,100275.89
2018-08-17T02:25:10.385Z,100279.94
2018-08-17T02:27:41.121Z,100286.63
2018-08-17T02:30:11.876Z,100280.61
2018-08-17T02:32:42.628Z,100278.08
2018-08-17T02:35:13.336Z,100284.00
2018-08-17T02:37:44.058Z,100288.83
2018-08-17T02:40:15.571Z,100291.45
2018-08-17T02:42:46.322Z,100303.51
2018-08-17T02:45:17.140Z,100310.59
2018-08-17T02:47:47.937Z,100312.67
2018-08-17T02:50:18.753Z,100316.54
2018-08-17T02:52:49.471Z,100316.91
2018-08-17T02:55:20.255Z,100327.83
2018-08-17T02:57:50.973Z,100334.78
2018-08-17T03:00:21.765Z,100334.64
2018-08-17T03:02:52.503Z,100336.11
2018-08-17T03:05:23.255Z,100323.59
2018-08-17T03:07:54.086Z,100317.52
2018-08-17T03:10:24.816Z,100315.09
2018-08-17T03:12:55.649Z,100322.50
2018-08-17T03:15:26.408Z,100324.58
2018-08-17T03:17:57.200Z,100321.42
2018-08-17T03:20:27.912Z,100325.80
2018-08-17T03:22:58.724Z,100319.84
2018-08-17T03:25:29.440Z,100317.52
2018-08-17T03:28:00.172Z,100313.03
2018-08-17T03:30:30.943Z,100314.84
2018-08-17T03:33:01.673Z,100312.67
2018-08-17T03:35:32.602Z,100317.03
2018-08-17T03:38:03.413Z,100317.78
2018-08-17T03:40:34.152Z,100315.09
2018-08-17T03:43:04.904Z,100310.84
2018-08-17T03:45:35.612Z,100307.70
2018-08-17T03:48:06.611Z,100307.33
2018-08-17T03:50:37.459Z,100314.48
2018-08-17T03:53:08.338Z,100320.30
2018-08-17T03:55:39.231Z,100329.04
2018-08-17T03:58:10.045Z,100334.16
2018-08-17T04:00:40.884Z,100322.97
2018-08-17T04:03:11.633Z,100323.95
2018-08-17T04:05:42.370Z,100328.67
2018-08-17T04:08:13.122Z,100336.22
2018-08-17T04:10:43.902Z,100335.25
2018-08-17T04:13:14.619Z,100335.51
2018-08-17T04:15:45.346Z,100342.66
2018-08-17T04:18:16.035Z,100350.91
2018-08-17T04:20:46.781Z,100353.08
2018-08-17T04:23:17.527Z,100350.66
2018-08-17T04:25:48.259Z,100345.22
2018-08-17T04:28:18.999Z,100360.88
2018-08-17T04:30:49.660Z,100349.81
2018-08-17T04:33:20.534Z,100356.48
2018-08-17T04:35:51.401Z,100360.16
2018-08-17T04:38:22.244Z,100366.44
2018-08-17T04:40:53.294Z,100364.16
2018-08-17T04:43:24.140Z,100367.79
2018-08-17T04:45:54.943Z,100359.53
2018-08-17T04:48:25.718Z,100360.63
2018-08-17T04:50:56.526Z,100374.59
2018-08-17T04:53:27.299Z,100375.22
2018-08-17T04:55:58.071Z,100382.61
2018-08-17T04:58:29.171Z,100384.67
2018-08-17T05:00:59.961Z,100396.93
2018-08-17T05:03:30.821Z,100406.89
2018-08-17T05:06:01.573Z,100401.19
2018-08-17T05:08:32.320Z,100407.73
2018-08-17T05:11:03.036Z,100408.62
2018-08-17T05:13:33.734Z,100414.83
2018-08-17T05:16:04.607Z,100408.88
2018-08-17T05:18:35.357Z,100421.02
2018-08-17T05:21:06.149Z,100434.84
2018-08-17T05:23:36.865Z,100442.88
2018-08-17T05:26:07.666Z,100447.62
2018-08-17T05:28:38.379Z,100457.92
2018-08-17T05:31:09.247Z,100464.98
2018-08-17T05:33:40.053Z,100477.73
2018-08-17T05:36:10.838Z,100491.95
2018-08-17T05:38:41.628Z,100512.00
2018-08-17T05:41:12.319Z,100510.66
2018-08-17T05:43:43.032Z,100502.89
2018-08-17T05:46:13.757Z,100484.64
2018-08-17T05:48:44.444Z,100478.91
2018-08-17T05:51:15.213Z,100483.99
2018-08-17T05:53:45.940Z,100489.59
2018-08-17T05:56:16.640Z,100479.98
2018-08-17T05:58:47.837Z,100458.02
2018-08-17T06:01:19.036Z,100445.73
2018-08-17T06:03:49.819Z,100465.97
2018-08-17T06:06:20.523Z,100482.20
2018-08-17T06:08:51.242Z,100496.67
2018-08-17T06:11:22.124Z,100499.38
2018-08-17T06:13:52.683Z,100497.78
2018-08-17T06:16:23.344Z,100498.52
2018-08-17T06:18:54.163Z,100499.12
2018-08-17T06:21:24.815Z,100505.45
2018-08-17T06:23:55.698Z,100508.85
2018-08-17T06:26:26.495Z,100515.53
2018-08-17T06:28:57.235Z,100524.71
2018-08-17T06:31:28.003Z,100529.80
2018-08-17T06:33:58.701Z,100553.09
2018-08-17T06:36:29.431Z,100554.70
2018-08-17T06:39:00.164Z,100548.28
2018-08-17T06:41:30.884Z,100542.88
2018-08-17T06:44:01.594Z,100539.14
2018-08-17T06:46:32.432Z,100524.68
2018-08-17T06:49:03.135Z,100528.35
2018-08-17T06:51:33.868Z,100532.75
2018-08-17T06:54:04.592Z,100541.50
2018-08-17T06:56:35.276Z,100540.59
2018-08-17T06:59:06.388Z,100533.62
2018-08-17T07:01:37.068Z,100524.67
2018-08-17T07:04:08.130Z,100520.85
2018-08-17T07:06:38.852Z,100514.78
2018-08-17T07:09:10.898Z,100512.64
2018-08-17T07:11:42.459Z,100517.28
2018-08-17T07:14:13.176Z,100509.53
2018-08-17T07:16:43.904Z,100496.70
2018-08-17T07:19:14.623Z,100491.45
2018-08-17T07:21:45.262Z,100492.47
2018-08-17T07:24:16.005Z,100497.68
2018-08-17T07:26:46.715Z,100491.45
2018-08-17T07:29:17.380Z,100485.07
2018-08-17T07:31:48.093Z,100484.68
2018-08-17T07:34:18.993Z,100474.89
2018-08-17T07:36:49.713Z,100466.23
2018-08-17T07:39:20.393Z,100473.67
2018-08-17T07:41:51.184Z,100464.24
2018-08-17T07:44:21.974Z,100454.45
2018-08-17T07:46:52.713Z,100454.67
2018-08-17T07:49:23.468Z,100464.27
2018-08-17T07:51:54.076Z,100471.59
2018-08-17T07:54:24.964Z,100470.11
2018-08-17T07:56:55.677Z,100466.56
2018-08-17T07:59:26.897Z,100462.01
2018-08-17T08:01:57.656Z,100467.34
2018-08-17T08:04:28.500Z,100460.22
2018-08-17T08:06:59.300Z,100459.69
2018-08-17T08:09:30.053Z,100459.11
2018-08-17T08:12:00.846Z,100456.98
2018-08-17T08:14:31.559Z,100458.25
2018-08-17T08:17:02.245Z,100456.70
2018-08-17T08:19:32.988Z,100471.87
2018-08-17T08:22:04.630Z,100478.25
2018-08-17T08:24:39.508Z,100480.84
2018-08-17T08:27:10.172Z,100476.20
2018-08-17T08:29:40.851Z,100479.58
2018-08-17T08:32:11.618Z,100492.11
2018-08-17T08:34:42.510Z,100497.81
2018-08-17T08:37:13.281Z,100505.45
2018-08-17T08:39:43.952Z,100518.55
2018-08-17T08:42:14.780Z,100529.88
2018-08-17T08:44:45.488Z,100553.99
2018-08-17T08:47:16.163Z,100560.45
2018-08-17T08:49:46.875Z,100567.91
2018-08-17T08:52:17.660Z,100573.34
2018-08-17T08:54:48.583Z,100570.09
2018-08-17T08:57:19.312Z,100571.73
2018-08-17T08:59:49.943Z,100577.62
2018-08-17T09:02:20.746Z,100575.50
2018-08-17T09:04:51.487Z,100574.77
2018-08-17T09:07:22.294Z,100575.11
2018-08-17T09:09:52.969Z,100571.92
2018-08-17T09:12:23.808Z,100579.11
2018-08-17T09:14:54.479Z,100576.82
2018-08-17T09:17:28.764Z,100580.14
2018-08-17T09:19:59.441Z,100576.34
2018-08-17T09:22:30.075Z,100579.17
2018-08-17T09:25:00.781Z,100579.36
2018-08-17T09:27:31.412Z,100586.20
2018-08-17T09:30:02.293Z,100585.73
2018-08-17T09:32:33.087Z,100595.42
2018-08-17T09:35:03.909Z,100603.06
2018-08-17T09:37:34.584Z,100597.78
2018-08-17T09:40:06.090Z,100594.77
2018-08-17T09:42:36.812Z,100598.81
2018-08-17T09:45:10.064Z,100599.95
2018-08-17T09:47:40.718Z,100596.18
2018-08-17T09:50:13.499Z,100605.71
2018-08-17T09:52:44.279Z,100593.17
2018-08-17T09:55:14.983Z,100601.77
2018-08-17T09:57:45.593Z,100599.40
2018-08-17T10:00:16.358Z,100603.11
2018-08-17T10:03:50.961Z,100602.13
2018-08-17T10:06:26.848Z,100598.79
2018-08-17T10:10:06.690Z,100600.55
2018-08-17T10:12:37.350Z,100602.27
2018-08-17T10:15:08.277Z,100600.66
2018-08-17T10:17:39.000Z,100599.95
2018-08-17T10:20:18.115Z,100601.91
2018-08-17T10:22:48.774Z,100607.52
2018-08-17T10:25:22.671Z,100609.94
2018-08-17T10:27:54.649Z,100611.05
2018-08-17T10:30:25.725Z,100610.27
2018-08-17T10:32:59.288Z,100614.36
2018-08-17T10:35:36.685Z,100622.42
2018-08-17T10:38:08.246Z,100614.43
2018-08-17T10:40:41.825Z,100617.30
2018-08-17T10:43:12.576Z,100618.73
2018-08-17T10:45:43.270Z,100617.20
2018-08-17T10:48:14.043Z,100615.91
2018-08-17T10:50:44.703Z,100620.16
2018-08-17T10:53:15.353Z,100620.63
2018-08-17T10:55:49.224Z,100615.45
2018-08-17T10:58:19.926Z,100617.23
2018-08-17T11:00:50.551Z,100615.86
2018-08-17T11:03:21.201Z,100610.58
2018-08-17T11:05:51.944Z,100618.77
2018-08-17T11:08:22.614Z,100614.16
2018-08-17T11:10:53.310Z,100617.11
2018-08-17T11:13:24.007Z,100623.39
2018-08-17T11:15:54.701Z,100630.81
2018-08-17T11:18:25.393Z,100630.05
2018-08-17T11:20:56.588Z,100639.09
2018-08-17T11:23:27.332Z,100633.23
2018-08-17T11:25:58.003Z,100630.39
2018-08-17T11:28:28.625Z,100636.63
2018-08-17T11:30:59.316Z,100630.30
2018-08-17T11:33:30.458Z,100634.21
2018-08-17T11:36:01.172Z,100636.95
2018-08-17T11:38:31.817Z,100635.65
2018-08-17T11:41:02.525Z,100637.59
2018-08-17T11:43:33.168Z,100639.88
2018-08-17T11:46:03.823Z,100644.02
2018-08-17T11:48:35.463Z,100652.34
2018-08-17T11:51:06.275Z,100648.03
2018-08-17T11:53:37.068Z,100652.29
2018-08-17T11:56:07.716Z,100650.14
2018-08-17T11:58:38.398Z,100656.36
2018-08-17T12:01:14.490Z,100656.03
2018-08-17T12:03:45.147Z,100663.15
2018-08-17T12:06:15.836Z,100664.11
2018-08-17T12:08:46.508Z,100673.67
2018-08-17T12:11:18.343Z,100669.09
2018-08-17T12:13:49.012Z,100676.05
2018-08-17T12:16:19.748Z,100687.59
2018-08-17T12:18:50.450Z,100685.67
2018-08-17T12:21:21.175Z,100689.26
2018-08-17T12:23:51.859Z,100684.52
2018-08-17T12:26:22.539Z,100694.74
2018-08-17T12:28:53.168Z,100697.31
2018-08-17T12:31:23.839Z,100704.14
2018-08-17T12:33:54.688Z,100706.25
2018-08-17T12:36:25.353Z,100699.77
2018-08-17T12:38:55.982Z,100699.78
2018-08-17T12:41:26.725Z,100703.67
2018-08-17T12:43:57.312Z,100699.02
2018-08-17T12:46:28.020Z,100697.02
2018-08-17T12:48:58.748Z,100692.19
2018-08-17T12:51:29.400Z,100693.27
2018-08-17T12:54:00.087Z,100685.67
2018-08-17T12:56:30.713Z,100688.13
2018-08-17T12:59:01.357Z,100688.72
2018-08-17T13:01:31.998Z,100689.05
2018-08-17T13:04:02.624Z,100689.02
2018-08-17T13:06:33.324Z,100685.11
2018-08-17T13:09:04.761Z,100687.07
2018-08-17T13:11:37.674Z,100684.81
2018-08-17T13:14:12.038Z,100686.31
2018-08-17T13:16:43.603Z,100693.27
2018-08-17T13:19:14.336Z,100686.88
2018-08-17T13:21:45.014Z,100692.27
2018-08-17T13:24:15.737Z,100688.37
2018-08-17T13:26:46.793Z,100687.78
2018-08-17T13:29:17.511Z,100696.31
2018-08-17T13:31:48.210Z,100693.71
2018-08-17T13:34:18.877Z,100691.97
2018-08-17T13:36:49.598Z,100688.58
2018-08-17T13:39:20.262Z,100687.42
2018-08-17T13:41:50.990Z,100688.93
2018-08-17T13:44:21.681Z,100693.84
2018-08-17T13:46:52.402Z,100693.27
2018-08-17T13:49:23.011Z,100690.30
2018-08-17T13:51:53.627Z,100682.13
2018-08-17T13:54:24.358Z,100682.27
2018-08-17T13:56:57.408Z,100677.39
2018-08-17T13:59:28.051Z,100674.22
2018-08-17T14:01:58.804Z,100672.23
2018-08-17T14:04:29.467Z,100675.22
2018-08-17T14:07:00.175Z,100674.37
2018-08-17T14:09:30.789Z,100669.97
2018-08-17T14:12:01.484Z,100669.80
2018-08-17T14:14:32.121Z,100666.94
2018-08-17T14:17:02.867Z,100677.95
2018-08-17T14:19:33.549Z,100669.80
2018-08-17T14:22:04.430Z,100676.52
2018-08-17T14:24:35.146Z,100673.94
2018-08-17T14:27:05.947Z,100673.05
2018-08-17T14:29:36.572Z,100674.78
2018-08-17T14:32:08.379Z,100673.12
2018-08-17T14:34:39.015Z,100666.98
2018-08-17T14:37:09.779Z,100662.62
2018-08-17T14:39:40.518Z,100661.00
2018-08-17T14:42:11.181Z,100658.64
2018-08-17T14:44:41.847Z,100665.06
2018-08-17T14:47:12.588Z,100663.20
2018-08-17T14:49:43.218Z,100665.22
2018-08-17T14:52:13.950Z,100670.14
2018-08-17T14:54:44.624Z,100672.51
2018-08-17T14:57:15.266Z,100668.09
2018-08-17T14:59:45.936Z,100664.37
2018-08-17T15:02:16.594Z,100663.67
2018-08-17T15:04:47.422Z,100657.59
2018-08-17T15:07:18.036Z,100663.03
2018-08-17T15:09:48.723Z,100658.44
2018-08-17T15:12:19.412Z,100656.60
2018-08-17T15:14:50.109Z,100656.92
2018-08-17T15:17:20.770Z,100656.08
2018-08-17T15:19:51.491Z,100652.98
2018-08-17T15:22:22.207Z,100650.67
2018-08-17T15:24:52.943Z,100648.48
2018-08-17T15:27:23.621Z,100648.13
2018-08-17T15:29:54.302Z,100647.97
2018-08-17T15:32:24.950Z,100649.16
2018-08-17T15:34:55.788Z,100643.54
2018-08-17T15:37:26.537Z,100643.38
2018-08-17T15:39:57.204Z,100648.58
2018-08-17T15:42:27.891Z,100645.31
2018-08-17T15:44:59.421Z,100645.16
2018-08-17T15:47:34.024Z,100645.38
2018-08-17T15:50:17.300Z,100649.28
2018-08-17T15:52:48.055Z,100648.45
2018-08-17T15:55:18.903Z,100651.14
2018-08-17T15:57:49.593Z,100649.33
2018-08-17T16:00:20.858Z,100658.28
2018-08-17T16:02:51.581Z,100647.45
2018-08-17T16:05:22.462Z,100644.92
2018-08-17T16:07:53.297Z,100646.60
2018-08-17T16:10:24.107Z,100646.77
2018-08-17T16:12:55.009Z,100642.05
2018-08-17T16:15:25.733Z,100641.33
2018-08-17T16:17:56.548Z,100644.62
2018-08-17T16:20:27.237Z,100644.80
2018-08-17T16:22:58.023Z,100649.43
2018-08-17T16:25:28.676Z,100643.60
2018-08-17T16:27:59.416Z,100646.83
2018-08-17T16:30:30.169Z,100645.97
2018-08-17T16:33:00.847Z,100641.41
2018-08-17T16:35:31.598Z,100642.45
2018-08-17T16:38:02.389Z,100648.16
2018-08-17T16:40:39.235Z,100653.21
2018-08-17T16:43:10.038Z,100655.73
2018-08-17T16:45:40.732Z,100656.77
2018-08-17T16:48:11.760Z,100659.00
2018-08-17T16:50:42.518Z,100658.19
2018-08-17T16:53:13.216Z,100665.31
2018-08-17T16:55:44.005Z,100665.27
2018-08-17T16:58:14.623Z,100663.80
2018-08-17T17:00:45.319Z,100661.10
2018-08-17T17:03:16.063Z,100659.84
2018-08-17T17:05:46.754Z,100656.94
2018-08-17T17:08:17.346Z,100661.09
2018-08-17T17:10:48.023Z,100662.84
2018-08-17T17:13:18.722Z,100660.87
2018-08-17T17:15:49.422Z,100669.40
2018-08-17T17:18:20.080Z,100672.81
2018-08-17T17:20:50.831Z,100670.95
2018-08-17T17:23:21.492Z,100668.06
2018-08-17T17:25:52.230Z,100665.44
2018-08-17T17:28:23.040Z,100669.73
2018-08-17T17:30:54.308Z,100668.66
2018-08-17T17:36:25.940Z,100666.55
2018-08-17T17:39:04.075Z,100666.89
2018-08-17T17:41:35.342Z,100670.59
2018-08-17T17:44:06.151Z,100666.22
2018-08-17T17:46:37.228Z,100662.88
2018-08-17T17:49:07.982Z,100667.64
2018-08-17T17:51:38.724Z,100673.89
2018-08-17T17:54:09.607Z,100672.64
2018-08-17T17:56:40.282Z,100668.95
2018-08-17T17:59:14.906Z,100675.34
2018-08-17T18:01:45.536Z,100674.72
2018-08-17T18:04:16.243Z,100667.00
2018-08-17T18:06:46.934Z,100672.42
2018-08-17T18:09:17.638Z,100670.03
2018-08-17T18:11:48.347Z,100670.70
2018-08-17T18:14:19.205Z,100667.27
2018-08-17T18:16:49.997Z,100679.91
2018-08-17T18:19:20.709Z,100677.20
2018-08-17T18:21:51.508Z,100670.73
2018-08-17T18:24:22.149Z,100676.79
2018-08-17T18:26:52.911Z,100672.84
2018-08-17T18:29:23.568Z,100679.14
2018-08-17T18:31:54.279Z,100681.27
2018-08-17T18:34:25.079Z,100684.36
2018-08-17T18:36:55.779Z,100685.00
2018-08-17T18:39:26.523Z,100690.56
2018-08-17T18:41:57.543Z,100698.52
2018-08-17T18:44:28.246Z,100702.72
2018-08-17T18:46:59.028Z,100704.09
2018-08-17T18:49:29.832Z,100699.52
2018-08-17T18:52:00.600Z,100708.04
2018-08-17T18:54:31.315Z,100712.31
2018-08-17T18:57:02.083Z,100714.28
2018-08-17T18:59:32.859Z,100712.59
2018-08-17T19:02:03.695Z,100723.89
2018-08-17T19:04:34.456Z,100724.73
2018-08-17T19:07:05.307Z,100720.84
2018-08-17T19:09:35.965Z,100734.77
2018-08-17T19:12:06.749Z,100731.59
2018-08-17T19:14:44.292Z,100737.69
2018-08-17T19:17:20.305Z,100738.48
2018-08-17T19:19:51.939Z,100740.42
2018-08-17T19:22:22.926Z,100749.14
2018-08-17T19:24:54.054Z,100749.95
2018-08-17T19:27:31.707Z,100752.50
2018-08-17T19:30:03.204Z,100749.17
2018-08-17T19:32:33.875Z,100760.34
2018-08-17T19:35:04.695Z,100759.30
2018-08-17T19:37:39.482Z,100759.97
2018-08-17T19:40:10.852Z,100759.66
2018-08-17T19:42:42.210Z,100765.81
2018-08-17T19:45:12.993Z,100760.33
2018-08-17T19:47:44.416Z,100764.72
2018-08-17T19:50:15.948Z,100767.87
2018-08-17T19:52:46.692Z,100768.94
2018-08-17T19:55:17.645Z,100769.41
2018-08-17T19:57:48.484Z,100772.20
2018-08-17T20:00:19.680Z,100775.14
2018-08-17T20:02:50.740Z,100779.75
2018-08-17T20:05:21.562Z,100776.81
2018-08-17T20:07:54.042Z,100777.14
2018-08-17T20:10:24.786Z,100775.19
2018-08-17T20:12:55.614Z,100779.28
2018-08-17T20:15:27.170Z,100782.93
2018-08-17T20:17:58.063Z,100785.34
2018-08-17T20:20:28.840Z,100784.95
2018-08-17T20:23:01.963Z,100785.55
2018-08-17T20:25:32.752Z,100784.92
2018-08-17T20:28:03.567Z,100787.45
2018-08-17T20:30:34.331Z,100792.05
2018-08-17T20:33:12.405Z,100789.70
2018-08-17T20:35:43.164Z,100787.95
2018-08-17T20:38:13.897Z,100793.69
2018-08-17T20:40:44.629Z,100789.27
2018-08-17T20:43:16.542Z,100787.52
2018-08-17T20:45:47.397Z,100790.19
2018-08-17T20:48:18.131Z,100798.55
2018-08-17T20:50:49.723Z,100793.88
2018-08-17T20:53:21.480Z,100792.28
2018-08-17T20:55:52.315Z,100795.34
2018-08-17T20:58:23.013Z,100798.20
2018-08-17T21:00:53.844Z,100798.52
2018-08-17T21:03:24.517Z,100799.11
2018-08-17T21:05:55.284Z,100800.44
2018-08-17T21:08:26.000Z,100799.73
2018-08-17T21:10:56.763Z,100801.69
2018-08-17T21:13:27.484Z,100803.33
2018-08-17T21:15:58.270Z,100804.97
2018-08-17T21:18:29.052Z,100809.78
2018-08-17T21:20:59.904Z,100811.42
2018-08-17T21:23:30.685Z,100810.39
2018-08-17T21:26:01.463Z,100816.03
2018-08-17T21:28:32.663Z,100816.39
2018-08-17T21:31:03.443Z,100818.39
2018-08-17T21:33:34.224Z,100817.23
2018-08-17T21:36:04.912Z,100808.59
2018-08-17T21:41:37.085Z,100820.89
2018-08-17T21:44:10.925Z,100818.59
2018-08-17T21:46:52.397Z,100815.91
2018-08-17T21:49:26.269Z,100823.55
2018-08-17T21:52:03.482Z,100829.47
2018-08-17T21:54:34.981Z,100828.98
2018-08-17T21:57:05.941Z,100832.08
2018-08-17T21:59:41.706Z,100829.81
2018-08-17T22:02:12.757Z,100827.98
2018-08-17T22:04:43.495Z,100835.88
2018-08-17T22:07:21.583Z,100829.41
2018-08-17T22:09:53.285Z,100838.95
2018-08-17T22:12:24.041Z,100839.78
2018-08-17T22:14:55.307Z,100843.13
2018-08-17T22:17:35.737Z,100842.70
2018-08-17T22:20:09.261Z,100840.97
2018-08-17T22:22:40.105Z,100837.83
2018-08-17T22:25:16.230Z,100839.05
2018-08-17T22:27:49.516Z,100837.08
2018-08-17T22:30:23.734Z,100841.38
2018-08-17T22:32:54.611Z,100847.45
2018-08-17T22:35:25.467Z,100851.91
2018-08-17T22:37:56.933Z,100849.63
2018-08-17T22:40:28.310Z,100850.58
2018-08-17T22:42:59.622Z,100852.95
2018-08-17T22:45:30.415Z,100857.26
2018-08-17T22:48:01.198Z,100864.03
2018-08-17T22:50:31.961Z,100860.22
2018-08-17T22:53:03.176Z,100863.75
2018-08-17T22:55:33.929Z,100870.05
2018-08-17T22:58:04.729Z,100870.43
2018-08-17T23:00:35.461Z,100869.14
2018-08-17T23:03:06.220Z,100872.72
2018-08-17T23:05:37.340Z,100867.91
2018-08-17T23:08:08.147Z,100875.90
2018-08-17T23:10:38.896Z,100874.86
2018-08-17T23:13:09.580Z,100878.17
2018-08-17T23:15:40.320Z,100877.23
2018-08-17T23:18:11.164Z,100873.53
2018-08-17T23:20:41.902Z,100870.50
2018-08-17T23:23:12.719Z,100875.62
2018-08-17T23:25:43.465Z,100875.14
2018-08-17T23:28:14.183Z,100874.59
2018-08-17T23:30:45.012Z,100870.96
2018-08-17T23:33:15.848Z,100879.16
2018-08-17T23:35:46.585Z,100875.16
2018-08-17T23:38:17.407Z,100874.97
2018-08-17T23:40:48.220Z,100876.48
2018-08-17T23:43:18.992Z,100875.82
2018-08-17T23:45:49.650Z,100877.22
2018-08-17T23:48:20.307Z,100880.28
2018-08-17T23:50:51.053Z,100878.76
2018-08-17T23:53:22.084Z,100879.61
2018-08-17T23:55:52.858Z,100884.44
2018-08-17T23:58:23.512Z,100883.06
